No data was retrieved for https://query.yahooapis.com/v1/public/yql?q=select+%2A+from+weather.forecast+where+woeid%3D860853&format=xml&u=c



Visit our other weather sites:

Template documentation
and downloads

And another site



Nearby METAR Reports

   
EBAW - Antwerp
Updated: 07-10-2022 03:50
  
  
   Wind: South 2.6 m/s
Wind: South 2.6 m/s
Temperature: 10°C
Wind Chill: 9°C
Dew Point: 7°C
Humidity: 82%
Barometer: 1027 hPa
Visibility: More than 10 km
Cloud details: Overcast
EBAW 070150Z AUTO 19005KT 9999 // VV/// 10/07 Q1027
EBLG - Liège
Updated: 07-10-2022 03:50
Clear  
Clear  
   Wind: SSE 4.1 m/s
Wind: SSE 4.1 m/s
Temperature: 8°C
Wind Chill: 6°C
Dew Point: 6°C
Humidity: 87%
Barometer: 1027 hPa
Visibility: More than 10 km
Cloud details: Clear
EBLG 070150Z 16008KT CAVOK 08/06 Q1027 NOSIG
EBCV - Mons/Bergen
Updated: 07-10-2022 03:55
Clear  
Clear  
   Wind: South 2.1 m/s
Wind: South 2.1 m/s
Temperature: 7°C
Wind Chill: 6°C
Dew Point: 7°C
Humidity: 100%
Barometer: 1027 hPa
Clouds: Clear
Visibility: More than 10 km
Cloud details: Clear
EBCV 070155Z AUTO 17004KT 9999 NCD 07/07 Q1027 BLU
EHBK - Maastricht
Updated: 07-10-2022 03:55
Few Clouds  
Few Clouds  
   Wind: South 3.1 m/s
Wind: South 3.1 m/s
Temperature: 8°C
Wind Chill: 6°C
Dew Point: 6°C
Humidity: 87%
Barometer: 1027 hPa
Clouds: Few Clouds
Visibility: More than 10 km
Cloud details: Few Clouds 4000 ft
EHBK 070155Z AUTO 19006KT 9999 FEW040 08/06 Q1027
ELLX - Luxemburg
Updated: 07-10-2022 03:50
Clear  
Clear  
   Wind: NE 2.1 m/s
Wind: NE 2.1 m/s
Temperature: 6°C
Wind Chill: 4°C
Dew Point: 5°C
Humidity: 93%
Barometer: 1028 hPa
Clouds: Clear
Visibility: More than 10 km
Cloud details: Clear
ELLX 070150Z AUTO 04004KT 9999 NCD 06/05 Q1028 NOSIG
EBOS - Oostende
Updated: 07-10-2022 03:50
Clear  
Clear  
   Wind: SSW 3.1 m/s
Wind: SSW 3.1 m/s
Temperature: 8°C
Wind Chill: 6°C
Dew Point: 7°C
Humidity: 93%
Barometer: 1026 hPa
Visibility: More than 10 km
Cloud details: Clear
EBOS 070150Z 20006KT CAVOK 08/07 Q1026 NOSIG

Script developed by  Saratoga-weather.org Adapted for the template by  Weerstation Leuven

You find our weather info also at:

Weather Underground

Equipment we use:

Weather-station
Davis Vantage Vue

Weather-program
WeatherCat

Provider
one.com

Davis Vantage Vue

WeatherCat

one.com